Terminal Aerodrome Forecast
Issued by NWS

Home | Current Version | Previous Version | Text Only | Print | Product List | Glossary On
Versions: 1 2 3 4 5 6 7 8 9 10 11 12 13 14 15
269
FTUS46 KSEW 121130
TAFPAE
TAF
KPAE 121130Z 1212/1312 15014KT P6SM -RA SCT006 OVC045
      TEMPO 1212/1215 5SM -RA BR BKN006 OVC045
     FM121800 18014KT P6SM VCSH SCT025 BKN040 BKN060
     FM122200 18010KT P6SM -SHRA SCT012 BKN022 OVC035=

USA.gov is the U.S. government's official web portal to all federal, state and local government web resources and services.